createdAt,value
2023-03-28T00:00:49.000Z,2.19
2023-03-28T00:03:18.914Z,2.17
2023-03-28T00:05:49.047Z,2.11
2023-03-28T00:08:17.702Z,2.11
2023-03-28T00:10:45.050Z,2.15
2023-03-28T00:13:13.959Z,2.21
2023-03-28T00:15:41.952Z,2.23
2023-03-28T00:18:11.601Z,2.19
2023-03-28T00:20:40.172Z,2.21
2023-03-28T00:23:08.040Z,2.22
2023-03-28T00:25:36.046Z,2.15
2023-03-28T00:28:03.373Z,2.22
2023-03-28T00:30:30.086Z,2.10
2023-03-28T00:32:57.508Z,2.08
2023-03-28T00:35:24.859Z,2.04
2023-03-28T00:37:57.749Z,2.06
2023-03-28T00:40:26.015Z,1.99
2023-03-28T00:42:52.983Z,1.97
2023-03-28T00:45:21.695Z,1.97
2023-03-28T00:48:15.486Z,1.97
2023-03-28T00:50:48.602Z,1.94
2023-03-28T00:53:21.334Z,1.97
2023-03-28T00:56:00.504Z,1.83
2023-03-28T00:58:32.029Z,1.72
2023-03-28T01:00:58.841Z,1.77
2023-03-28T01:03:33.700Z,1.76
2023-03-28T01:06:04.759Z,1.69
2023-03-28T01:08:40.694Z,1.65
2023-03-28T01:11:07.643Z,1.59
2023-03-28T01:13:39.208Z,1.60
2023-03-28T01:16:08.155Z,1.46
2023-03-28T01:18:37.335Z,1.46
2023-03-28T01:21:31.240Z,1.48
2023-03-28T01:24:25.375Z,1.49
2023-03-28T01:26:57.850Z,1.55
2023-03-28T01:29:35.063Z,1.33
2023-03-28T01:32:25.318Z,1.24
2023-03-28T01:35:36.555Z,1.32
2023-03-28T01:38:27.800Z,1.33
2023-03-28T01:41:10.796Z,1.21
2023-03-28T01:43:58.492Z,1.16
2023-03-28T01:46:32.344Z,1.12
2023-03-28T01:49:26.962Z,0.98
2023-03-28T01:52:08.428Z,1.07
2023-03-28T01:55:03.121Z,1.14
2023-03-28T01:57:50.728Z,1.12
2023-03-28T02:00:31.542Z,1.03
2023-03-28T02:03:18.851Z,1.02
2023-03-28T02:05:57.758Z,0.90
2023-03-28T02:08:29.880Z,0.82
2023-03-28T02:11:25.469Z,0.85
2023-03-28T02:13:59.936Z,0.86
2023-03-28T02:17:04.811Z,0.88
2023-03-28T02:19:59.391Z,0.88
2023-03-28T02:22:54.064Z,0.79
2023-03-28T02:25:50.019Z,0.80
2023-03-28T02:28:37.761Z,0.75
2023-03-28T02:31:27.025Z,0.66
2023-03-28T02:33:53.886Z,0.72
2023-03-28T02:36:29.433Z,0.79
2023-03-28T02:39:14.234Z,0.78
2023-03-28T02:42:03.479Z,0.82
2023-03-28T02:44:42.266Z,0.84
2023-03-28T02:47:16.612Z,0.86
2023-03-28T02:49:50.671Z,0.79
2023-03-28T02:52:34.769Z,0.80
2023-03-28T02:55:23.957Z,0.75
2023-03-28T02:58:08.072Z,0.79
2023-03-28T03:00:36.419Z,0.74
2023-03-28T03:03:04.043Z,0.68
2023-03-28T03:05:30.694Z,0.64
2023-03-28T03:07:57.085Z,0.59
2023-03-28T03:10:23.908Z,0.70
2023-03-28T03:12:50.823Z,0.76
2023-03-28T03:15:17.970Z,0.82
2023-03-28T03:17:53.526Z,0.78
2023-03-28T03:20:26.665Z,0.77
2023-03-28T03:22:54.708Z,0.76
2023-03-28T03:25:21.617Z,0.74
2023-03-28T03:28:17.334Z,0.63
2023-03-28T03:30:45.202Z,0.60
2023-03-28T03:33:24.056Z,0.64
2023-03-28T03:35:57.424Z,0.58
2023-03-28T03:38:23.924Z,0.60
2023-03-28T03:40:50.586Z,0.60
2023-03-28T03:43:17.117Z,0.59
2023-03-28T03:45:45.920Z,0.60
2023-03-28T03:48:12.959Z,0.57
2023-03-28T03:50:40.427Z,0.54
2023-03-28T03:53:15.777Z,0.55
2023-03-28T03:56:06.412Z,0.52
2023-03-28T03:58:56.978Z,0.49
2023-03-28T04:01:30.071Z,0.52
2023-03-28T04:04:04.034Z,0.48
2023-03-28T04:06:46.812Z,0.39
2023-03-28T04:09:13.245Z,0.38
2023-03-28T04:11:58.131Z,0.39
2023-03-28T04:14:24.762Z,0.37
2023-03-28T04:17:01.896Z,0.37
2023-03-28T04:19:28.549Z,0.37
2023-03-28T04:21:57.364Z,0.37
2023-03-28T04:24:24.725Z,0.30
2023-03-28T04:27:15.624Z,0.36
2023-03-28T04:29:44.992Z,0.25
2023-03-28T04:32:28.648Z,0.19
2023-03-28T04:35:03.278Z,0.26
2023-03-28T04:37:30.241Z,0.12
2023-03-28T04:40:01.600Z,0.21
2023-03-28T04:42:39.706Z,0.32
2023-03-28T04:45:26.726Z,0.27
2023-03-28T04:47:55.687Z,0.32
2023-03-28T04:50:23.065Z,0.34
2023-03-28T04:52:49.665Z,0.18
2023-03-28T04:55:17.381Z,0.17
2023-03-28T04:57:46.068Z,0.33
2023-03-28T05:00:13.343Z,0.32
2023-03-28T05:03:05.152Z,0.33
2023-03-28T05:05:37.376Z,0.48
2023-03-28T05:08:08.808Z,0.63
2023-03-28T05:10:35.495Z,0.74
2023-03-28T05:13:05.840Z,0.73
2023-03-28T05:15:39.395Z,0.80
2023-03-28T05:18:20.408Z,0.84
2023-03-28T05:20:46.810Z,0.76
2023-03-28T05:23:13.466Z,0.84
2023-03-28T05:25:42.145Z,0.84
2023-03-28T05:28:09.479Z,0.79
2023-03-28T05:30:45.937Z,0.79
2023-03-28T05:33:12.479Z,0.85
2023-03-28T05:35:39.859Z,0.87
2023-03-28T05:38:06.783Z,0.97
2023-03-28T05:40:33.220Z,1.04
2023-03-28T05:43:00.160Z,1.08
2023-03-28T05:45:26.779Z,1.10
2023-03-28T05:47:57.355Z,1.12
2023-03-28T05:50:26.220Z,1.13
2023-03-28T05:52:58.211Z,1.15
2023-03-28T05:55:24.697Z,1.16
2023-03-28T05:57:52.008Z,1.15
2023-03-28T06:00:20.238Z,1.22
2023-03-28T06:02:52.051Z,1.31
2023-03-28T06:05:22.517Z,1.37
2023-03-28T06:07:49.502Z,1.37
2023-03-28T06:10:17.761Z,1.43
2023-03-28T06:12:56.497Z,1.60
2023-03-28T06:15:23.236Z,1.75
2023-03-28T06:17:50.526Z,1.84
2023-03-28T06:20:17.206Z,1.95
2023-03-28T06:22:44.372Z,1.97
2023-03-28T06:25:11.538Z,2.03
2023-03-28T06:27:38.270Z,2.21
2023-03-28T06:30:05.584Z,2.22
2023-03-28T06:32:39.694Z,2.30
2023-03-28T06:35:06.802Z,2.32
2023-03-28T06:37:33.442Z,2.41
2023-03-28T06:40:03.543Z,2.60
2023-03-28T06:42:30.746Z,2.66
2023-03-28T06:45:21.348Z,2.75
2023-03-28T06:47:56.783Z,2.85
2023-03-28T06:50:50.148Z,2.85
2023-03-28T06:53:19.628Z,2.99
2023-03-28T06:55:49.794Z,3.03
2023-03-28T06:58:16.628Z,3.01
2023-03-28T07:00:52.620Z,3.02
2023-03-28T07:03:38.444Z,2.99
2023-03-28T07:06:07.652Z,2.94
2023-03-28T07:08:36.075Z,2.89
2023-03-28T07:11:03.591Z,2.84
2023-03-28T07:13:31.473Z,2.87
2023-03-28T07:16:06.223Z,2.94
2023-03-28T07:18:33.631Z,2.98
2023-03-28T07:21:06.562Z,3.06
2023-03-28T07:23:33.791Z,2.96
2023-03-28T07:26:00.498Z,3.04
2023-03-28T07:28:27.353Z,3.06
2023-03-28T07:30:56.381Z,3.25
2023-03-28T07:33:28.993Z,3.38
2023-03-28T07:36:06.690Z,3.72
2023-03-28T07:38:34.513Z,3.78
2023-03-28T07:41:02.269Z,3.99
2023-03-28T07:43:28.905Z,3.98
2023-03-28T07:46:06.775Z,4.22
2023-03-28T07:48:35.038Z,4.22
2023-03-28T07:51:03.827Z,4.28
2023-03-28T07:53:30.302Z,4.61
2023-03-28T07:55:56.930Z,4.79
2023-03-28T07:58:30.576Z,5.01
2023-03-28T08:01:09.858Z,5.16
2023-03-28T08:03:42.696Z,5.30
2023-03-28T08:06:24.337Z,5.64
2023-03-28T08:08:57.283Z,5.74
2023-03-28T08:11:44.936Z,5.46
2023-03-28T08:14:14.295Z,5.58
2023-03-28T08:16:41.828Z,5.45
2023-03-28T08:19:11.730Z,5.30
2023-03-28T08:22:07.702Z,5.09
2023-03-28T08:24:41.683Z,5.01
2023-03-28T08:27:14.414Z,5.01
2023-03-28T08:29:44.134Z,4.98
2023-03-28T08:32:10.706Z,4.78
2023-03-28T08:34:38.020Z,4.56
2023-03-28T08:37:12.428Z,4.38
2023-03-28T08:39:42.638Z,4.48
2023-03-28T08:42:41.340Z,4.64
2023-03-28T08:45:27.977Z,4.56
2023-03-28T08:48:22.487Z,4.72
2023-03-28T08:51:01.268Z,4.96
2023-03-28T08:53:34.737Z,5.31
2023-03-28T08:56:06.083Z,5.31
2023-03-28T08:58:42.549Z,5.51
2023-03-28T09:01:10.204Z,5.44
2023-03-28T09:03:36.869Z,5.42
2023-03-28T09:06:31.015Z,5.46
2023-03-28T09:09:16.138Z,5.80
2023-03-28T09:11:59.266Z,5.72
2023-03-28T09:14:41.518Z,5.85
2023-03-28T09:17:23.840Z,5.89
2023-03-28T09:20:11.491Z,6.05
2023-03-28T09:23:48.969Z,6.20
2023-03-28T09:26:29.807Z,6.31
2023-03-28T09:29:09.046Z,6.35
2023-03-28T09:31:44.048Z,6.44
2023-03-28T09:34:23.202Z,6.32
2023-03-28T09:36:56.490Z,6.60
2023-03-28T09:39:32.644Z,6.66
2023-03-28T09:42:26.173Z,6.54
2023-03-28T09:45:45.945Z,6.41
2023-03-28T09:48:44.735Z,6.30
2023-03-28T09:51:19.517Z,6.17
2023-03-28T09:53:46.697Z,6.20
2023-03-28T09:56:47.202Z,6.08
2023-03-28T09:59:35.627Z,6.12
2023-03-28T10:02:26.298Z,5.77
2023-03-28T10:04:53.755Z,5.43
2023-03-28T10:07:52.524Z,5.37
2023-03-28T10:10:32.278Z,5.43
2023-03-28T10:13:04.789Z,5.69
2023-03-28T10:15:41.654Z,6.02
2023-03-28T10:18:28.624Z,6.25
2023-03-28T10:21:22.434Z,6.33
2023-03-28T10:24:04.143Z,6.58
2023-03-28T10:26:31.496Z,7.04
2023-03-28T10:29:05.042Z,7.06
2023-03-28T10:31:33.196Z,7.08
2023-03-28T10:34:26.478Z,7.20
2023-03-28T10:37:31.695Z,7.00
2023-03-28T10:40:17.967Z,6.90
2023-03-28T10:43:15.645Z,6.96
2023-03-28T10:46:04.103Z,6.93
2023-03-28T10:48:48.693Z,7.09
2023-03-28T10:51:23.089Z,7.04
2023-03-28T10:54:05.810Z,7.08
2023-03-28T10:56:41.553Z,6.94
2023-03-28T10:59:34.347Z,6.80
2023-03-28T11:02:07.186Z,6.61
2023-03-28T11:05:03.508Z,6.41
2023-03-28T11:08:02.160Z,6.51
2023-03-28T11:11:10.896Z,6.30
2023-03-28T11:14:08.974Z,6.34
2023-03-28T11:17:15.602Z,6.99
2023-03-28T11:20:22.455Z,7.65
2023-03-28T11:23:21.350Z,7.64
2023-03-28T11:26:14.716Z,7.28
2023-03-28T11:29:14.746Z,7.06
2023-03-28T11:32:04.316Z,7.05
2023-03-28T11:34:37.336Z,6.82
2023-03-28T11:37:13.348Z,6.87
2023-03-28T11:39:48.661Z,6.93
2023-03-28T11:42:35.828Z,6.99
2023-03-28T11:45:09.215Z,6.91
2023-03-28T11:47:50.345Z,6.68
2023-03-28T11:50:24.689Z,6.63
2023-03-28T11:53:11.637Z,6.61
2023-03-28T11:55:51.235Z,6.66
2023-03-28T11:58:42.487Z,6.64
2023-03-28T12:01:28.612Z,6.71
2023-03-28T12:04:09.591Z,6.79
2023-03-28T12:06:59.591Z,6.74
2023-03-28T12:09:57.470Z,6.93
2023-03-28T12:12:33.037Z,6.89
2023-03-28T12:15:10.835Z,6.90
2023-03-28T12:17:59.490Z,6.95
2023-03-28T12:20:36.799Z,6.83
2023-03-28T12:23:39.594Z,6.66
2023-03-28T12:26:52.209Z,6.76
2023-03-28T12:29:52.087Z,6.84
2023-03-28T12:32:36.396Z,6.82
2023-03-28T12:35:13.628Z,6.89
2023-03-28T12:38:02.208Z,6.90
2023-03-28T12:41:04.118Z,6.82
2023-03-28T12:44:09.905Z,6.80
2023-03-28T12:46:46.576Z,6.95
2023-03-28T12:49:22.071Z,7.09
2023-03-28T12:51:53.508Z,7.25
2023-03-28T12:54:22.991Z,7.26
2023-03-28T12:57:02.950Z,7.46
2023-03-28T12:59:43.839Z,7.59
2023-03-28T13:02:37.720Z,7.44
2023-03-28T13:05:20.802Z,7.34
2023-03-28T13:08:05.472Z,7.52
2023-03-28T13:11:03.693Z,7.68
2023-03-28T13:13:59.065Z,7.58
2023-03-28T13:16:43.687Z,7.76
2023-03-28T13:19:12.963Z,7.89
2023-03-28T13:21:54.335Z,7.67
2023-03-28T13:24:30.260Z,7.71
2023-03-28T13:27:07.970Z,7.92
2023-03-28T13:29:57.810Z,8.43
2023-03-28T13:32:25.762Z,8.85
2023-03-28T13:34:57.729Z,8.49
2023-03-28T13:37:26.260Z,8.67
2023-03-28T13:39:59.083Z,8.94
2023-03-28T13:42:33.826Z,8.73
2023-03-28T13:45:16.214Z,9.07
2023-03-28T13:47:42.835Z,9.73
2023-03-28T13:50:21.685Z,10.12
2023-03-28T13:52:48.306Z,9.11
2023-03-28T13:55:20.744Z,8.63
2023-03-28T13:57:48.253Z,8.57
2023-03-28T14:00:18.201Z,8.41
2023-03-28T14:02:52.888Z,8.45
2023-03-28T14:05:28.325Z,8.37
2023-03-28T14:08:02.259Z,8.50
2023-03-28T14:10:33.106Z,8.45
2023-03-28T14:13:07.232Z,8.45
2023-03-28T14:15:42.186Z,8.34
2023-03-28T14:18:37.609Z,8.50
2023-03-28T14:21:07.751Z,8.64
2023-03-28T14:23:38.499Z,8.79
2023-03-28T14:26:21.401Z,8.77
2023-03-28T14:28:51.032Z,8.85
2023-03-28T14:31:31.443Z,9.10
2023-03-28T14:33:59.588Z,9.40
2023-03-28T14:36:31.194Z,9.77
2023-03-28T14:39:04.682Z,9.91
2023-03-28T14:41:35.741Z,9.76
2023-03-28T14:44:05.738Z,9.80
2023-03-28T14:46:33.402Z,10.02
2023-03-28T14:49:03.654Z,10.65
2023-03-28T14:51:40.913Z,10.67
2023-03-28T14:54:12.282Z,9.49
2023-03-28T14:56:39.289Z,9.69
2023-03-28T14:59:07.392Z,9.48
2023-03-28T15:01:34.598Z,9.21
2023-03-28T15:04:06.771Z,8.95
2023-03-28T15:06:35.131Z,8.89
2023-03-28T15:09:11.024Z,8.84
2023-03-28T15:11:41.294Z,8.73
2023-03-28T15:14:16.253Z,8.50
2023-03-28T15:16:45.788Z,8.51
2023-03-28T15:19:25.111Z,8.57
2023-03-28T15:21:58.969Z,8.54
2023-03-28T15:24:27.653Z,8.44
2023-03-28T15:26:59.222Z,8.50
2023-03-28T15:29:26.212Z,8.45
2023-03-28T15:31:57.684Z,8.81
2023-03-28T15:34:29.160Z,9.25
2023-03-28T15:37:06.775Z,9.18
2023-03-28T15:39:35.273Z,9.04
2023-03-28T15:42:27.761Z,9.03
2023-03-28T15:44:56.851Z,8.91
2023-03-28T15:47:35.646Z,8.91
2023-03-28T15:50:08.664Z,8.98
2023-03-28T15:52:35.723Z,9.19
2023-03-28T15:55:05.654Z,9.20
2023-03-28T15:57:32.668Z,9.13
2023-03-28T16:00:00.638Z,9.09
2023-03-28T16:02:32.181Z,8.88
2023-03-28T16:05:04.883Z,8.85
2023-03-28T16:07:43.559Z,8.68
2023-03-28T16:10:10.865Z,8.61
2023-03-28T16:12:57.520Z,8.63
2023-03-28T16:15:39.543Z,8.58
2023-03-28T16:18:18.882Z,8.64
2023-03-28T16:20:51.632Z,8.61
2023-03-28T16:23:18.191Z,8.71
2023-03-28T16:25:44.835Z,8.69
2023-03-28T16:28:17.752Z,8.53
2023-03-28T16:30:44.930Z,8.34
2023-03-28T16:33:11.760Z,8.28
2023-03-28T16:35:38.263Z,8.15
2023-03-28T16:38:05.313Z,8.17
2023-03-28T16:40:31.728Z,8.07
2023-03-28T16:42:58.697Z,7.94
2023-03-28T16:45:25.101Z,7.95
2023-03-28T16:47:52.544Z,7.89
2023-03-28T16:50:19.183Z,7.84
2023-03-28T16:52:45.697Z,7.78
2023-03-28T16:55:14.710Z,7.76
2023-03-28T16:57:41.573Z,7.75
2023-03-28T17:00:11.714Z,7.75
2023-03-28T17:02:38.868Z,7.72
2023-03-28T17:05:06.029Z,7.74
2023-03-28T17:07:32.772Z,7.76
2023-03-28T17:09:59.193Z,7.67
2023-03-28T17:12:26.244Z,7.66
2023-03-28T17:14:52.694Z,7.66
2023-03-28T17:17:19.991Z,7.56
2023-03-28T17:19:46.532Z,7.48
2023-03-28T17:22:13.388Z,7.44
2023-03-28T17:24:40.048Z,7.44
2023-03-28T17:27:07.057Z,7.26
2023-03-28T17:29:33.625Z,7.15
2023-03-28T17:32:00.177Z,7.11
2023-03-28T17:34:26.677Z,7.12
2023-03-28T17:36:53.482Z,6.98
2023-03-28T17:39:20.562Z,6.94
2023-03-28T17:41:47.214Z,6.92
2023-03-28T17:44:13.660Z,6.89
2023-03-28T17:46:40.331Z,6.87
2023-03-28T17:49:08.151Z,6.84
2023-03-28T17:51:34.685Z,6.83
2023-03-28T17:54:01.144Z,6.83
2023-03-28T17:56:27.961Z,6.80
2023-03-28T17:58:54.411Z,6.78
2023-03-28T18:01:20.965Z,6.69
2023-03-28T18:03:47.583Z,6.63
2023-03-28T18:06:34.222Z,6.71
2023-03-28T18:09:00.839Z,6.63
2023-03-28T18:11:27.435Z,6.68
2023-03-28T18:13:56.959Z,6.73
2023-03-28T18:16:23.940Z,6.73
2023-03-28T18:18:50.563Z,6.78
2023-03-28T18:21:17.282Z,6.76
2023-03-28T18:23:43.785Z,6.73
2023-03-28T18:26:10.246Z,6.65
2023-03-28T18:28:36.857Z,6.65
2023-03-28T18:31:12.049Z,6.61
2023-03-28T18:33:39.771Z,6.60
2023-03-28T18:36:07.270Z,6.56
2023-03-28T18:38:38.469Z,6.61
2023-03-28T18:41:06.748Z,6.64
2023-03-28T18:43:33.593Z,6.63
2023-03-28T18:46:01.023Z,6.62
2023-03-28T18:48:28.325Z,6.61
2023-03-28T18:50:55.910Z,6.69
2023-03-28T18:53:22.934Z,6.54
2023-03-28T18:55:49.375Z,6.57
2023-03-28T18:58:16.146Z,6.59
2023-03-28T19:00:42.828Z,6.54
2023-03-28T19:03:09.559Z,6.50
2023-03-28T19:05:37.140Z,6.54
2023-03-28T19:08:04.171Z,6.54
2023-03-28T19:10:30.939Z,6.52
2023-03-28T19:12:57.447Z,6.55
2023-03-28T19:15:24.000Z,6.44
2023-03-28T19:17:51.014Z,6.40
2023-03-28T19:20:18.472Z,6.42
2023-03-28T19:22:45.069Z,6.42
2023-03-28T19:25:11.653Z,6.40
2023-03-28T19:27:38.435Z,6.37
2023-03-28T19:30:06.401Z,6.39
2023-03-28T19:32:33.300Z,6.29
2023-03-28T19:34:59.887Z,6.35
2023-03-28T19:37:26.343Z,6.39
2023-03-28T19:39:52.802Z,6.45
2023-03-28T19:42:20.252Z,6.36
2023-03-28T19:44:46.763Z,6.37
2023-03-28T19:47:13.219Z,6.33
2023-03-28T19:49:39.801Z,6.26
2023-03-28T19:52:09.716Z,6.30
2023-03-28T19:54:37.000Z,6.39
2023-03-28T19:57:06.025Z,6.31
2023-03-28T19:59:33.952Z,6.38
2023-03-28T20:02:00.501Z,6.36
2023-03-28T20:04:28.089Z,6.31
2023-03-28T20:06:54.896Z,6.28
2023-03-28T20:09:21.521Z,6.32
2023-03-28T20:11:47.991Z,6.26
2023-03-28T20:14:17.142Z,6.25
2023-03-28T20:16:43.737Z,6.25
2023-03-28T20:19:10.748Z,6.28
2023-03-28T20:21:37.237Z,6.25
2023-03-28T20:24:04.103Z,6.36
2023-03-28T20:26:31.806Z,6.25
2023-03-28T20:28:59.395Z,6.30
2023-03-28T20:31:26.935Z,6.24
2023-03-28T20:33:53.979Z,6.28
2023-03-28T20:36:20.650Z,6.23
2023-03-28T20:38:47.902Z,6.25
2023-03-28T20:41:16.967Z,6.23
2023-03-28T20:43:46.824Z,6.21
2023-03-28T20:46:19.053Z,6.21
2023-03-28T20:48:47.924Z,6.25
2023-03-28T20:51:17.271Z,6.26
2023-03-28T20:53:46.180Z,6.20
2023-03-28T20:56:13.681Z,6.22
2023-03-28T20:58:40.719Z,6.16
2023-03-28T21:01:10.709Z,6.18
2023-03-28T21:03:48.152Z,6.14
2023-03-28T21:06:16.923Z,6.18
2023-03-28T21:08:47.680Z,6.19
2023-03-28T21:11:19.488Z,6.14
2023-03-28T21:13:45.920Z,6.14
2023-03-28T21:16:14.285Z,6.17
2023-03-28T21:18:41.201Z,6.21
2023-03-28T21:21:08.901Z,6.14
2023-03-28T21:23:39.043Z,6.14
2023-03-28T21:26:07.987Z,6.07
2023-03-28T21:28:35.459Z,6.02
2023-03-28T21:31:04.463Z,6.04
2023-03-28T21:33:31.135Z,6.07
2023-03-28T21:35:59.521Z,6.08
2023-03-28T21:38:27.312Z,6.10
2023-03-28T21:40:53.861Z,6.09
2023-03-28T21:43:20.544Z,6.07
2023-03-28T21:45:47.963Z,6.01
2023-03-28T21:48:16.045Z,5.97
2023-03-28T21:50:50.176Z,6.01
2023-03-28T21:53:16.613Z,5.94
2023-03-28T21:55:43.070Z,5.94
2023-03-28T21:58:09.471Z,6.01
2023-03-28T22:00:35.923Z,5.83
2023-03-28T22:03:02.404Z,5.89
2023-03-28T22:05:29.979Z,5.86
2023-03-28T22:07:56.882Z,5.86
2023-03-28T22:10:26.688Z,5.84
2023-03-28T22:12:54.000Z,5.83
2023-03-28T22:15:20.604Z,5.69
2023-03-28T22:17:47.082Z,5.78
2023-03-28T22:20:14.806Z,5.76
2023-03-28T22:22:44.703Z,5.65
2023-03-28T22:25:12.926Z,5.68
2023-03-28T22:27:40.096Z,5.65
2023-03-28T22:30:10.415Z,5.55
2023-03-28T22:32:38.857Z,5.51
2023-03-28T22:35:06.458Z,5.45
2023-03-28T22:37:34.036Z,5.47
2023-03-28T22:40:00.488Z,5.45
2023-03-28T22:42:27.495Z,5.46
2023-03-28T22:44:54.050Z,5.47
2023-03-28T22:47:20.496Z,5.47
2023-03-28T22:49:47.348Z,5.57
2023-03-28T22:52:13.860Z,5.51
2023-03-28T22:54:42.696Z,5.48
2023-03-28T22:57:09.551Z,5.48
2023-03-28T22:59:36.381Z,5.46
2023-03-28T23:02:03.516Z,5.39
2023-03-28T23:04:33.153Z,5.44
2023-03-28T23:06:59.646Z,5.37
2023-03-28T23:09:27.924Z,5.34
2023-03-28T23:11:55.034Z,5.37
2023-03-28T23:14:22.206Z,5.38
2023-03-28T23:16:48.871Z,5.38
2023-03-28T23:19:16.453Z,5.46
2023-03-28T23:21:43.186Z,5.45
2023-03-28T23:24:09.874Z,5.50
2023-03-28T23:26:36.312Z,5.47
2023-03-28T23:29:05.122Z,5.51
2023-03-28T23:31:32.814Z,5.55
2023-03-28T23:33:59.582Z,5.58
2023-03-28T23:36:30.001Z,5.58
2023-03-28T23:38:56.720Z,5.59
2023-03-28T23:41:23.547Z,5.62
2023-03-28T23:43:50.594Z,5.62
2023-03-28T23:46:17.059Z,5.63
2023-03-28T23:48:43.624Z,5.58
2023-03-28T23:51:10.078Z,5.59
2023-03-28T23:53:36.964Z,5.58
2023-03-28T23:56:03.632Z,5.61
2023-03-28T23:58:30.078Z,5.62
